sensor_id;sensor_type;location;lat;lon;timestamp;pressure;altitude;pressure_sealevel;temperature;humidity
30636;BME280;17400;52.392;9.750;2022-08-19T04:01:10;100605.69;;;20.36;100.00
30636;BME280;17400;52.392;9.750;2022-08-19T04:03:38;100598.25;;;20.37;100.00
30636;BME280;17400;52.392;9.750;2022-08-19T04:06:11;100605.69;;;20.36;100.00
30636;BME280;17400;52.392;9.750;2022-08-19T04:08:39;100602.34;;;20.34;100.00
30636;BME280;17400;52.392;9.750;2022-08-19T04:11:07;100598.78;;;20.34;100.00
30636;BME280;17400;52.392;9.750;2022-08-19T04:13:36;100606.22;;;20.38;100.00
30636;BME280;17400;52.392;9.750;2022-08-19T04:16:05;100608.72;;;20.40;100.00
30636;BME280;17400;52.392;9.750;2022-08-19T04:18:34;100604.56;;;20.37;100.00
30636;BME280;17400;52.392;9.750;2022-08-19T04:21:02;100614.47;;;20.38;100.00
30636;BME280;17400;52.392;9.750;2022-08-19T04:23:31;100625.78;;;20.42;100.00
30636;BME280;17400;52.392;9.750;2022-08-19T04:25:59;100617.25;;;20.43;100.00
30636;BME280;17400;52.392;9.750;2022-08-19T04:28:28;100605.41;;;20.38;100.00
30636;BME280;17400;52.392;9.750;2022-08-19T04:30:57;100605.06;;;20.29;100.00
30636;BME280;17400;52.392;9.750;2022-08-19T04:33:25;100604.03;;;20.35;100.00
30636;BME280;17400;52.392;9.750;2022-08-19T04:35:56;100597.16;;;20.38;100.00
30636;BME280;17400;52.392;9.750;2022-08-19T04:38:24;100598.53;;;20.35;100.00
30636;BME280;17400;52.392;9.750;2022-08-19T04:40:52;100601.75;;;20.22;100.00
30636;BME280;17400;52.392;9.750;2022-08-19T04:43:38;100593.78;;;20.25;100.00
30636;BME280;17400;52.392;9.750;2022-08-19T04:46:06;100588.84;;;20.27;100.00
30636;BME280;17400;52.392;9.750;2022-08-19T04:48:35;100589.97;;;20.31;100.00
30636;BME280;17400;52.392;9.750;2022-08-19T04:51:16;100588.66;;;20.39;100.00
30636;BME280;17400;52.392;9.750;2022-08-19T04:53:43;100596.09;;;20.44;100.00
30636;BME280;17400;52.392;9.750;2022-08-19T04:56:14;100608.75;;;20.45;100.00
30636;BME280;17400;52.392;9.750;2022-08-19T04:58:44;100610.09;;;20.42;100.00
30636;BME280;17400;52.392;9.750;2022-08-19T05:01:12;100615.59;;;20.42;100.00
30636;BME280;17400;52.392;9.750;2022-08-19T05:03:40;100614.44;;;20.33;100.00
30636;BME280;17400;52.392;9.750;2022-08-19T05:06:10;100617.72;;;20.30;100.00
30636;BME280;17400;52.392;9.750;2022-08-19T05:08:41;100613.81;;;20.21;100.00
30636;BME280;17400;52.392;9.750;2022-08-19T05:11:11;100631.34;;;20.14;100.00
30636;BME280;17400;52.392;9.750;2022-08-19T05:13:40;100627.47;;;20.10;100.00
30636;BME280;17400;52.392;9.750;2022-08-19T05:16:09;100622.25;;;20.09;100.00
30636;BME280;17400;52.392;9.750;2022-08-19T05:18:37;100610.44;;;20.13;100.00
30636;BME280;17400;52.392;9.750;2022-08-19T05:21:20;100615.75;;;20.20;100.00
30636;BME280;17400;52.392;9.750;2022-08-19T05:24:07;100602.81;;;20.21;100.00
30636;BME280;17400;52.392;9.750;2022-08-19T05:26:35;100600.84;;;20.16;100.00
30636;BME280;17400;52.392;9.750;2022-08-19T05:29:03;100601.88;;;20.05;100.00
30636;BME280;17400;52.392;9.750;2022-08-19T05:31:33;100598.88;;;20.06;100.00
30636;BME280;17400;52.392;9.750;2022-08-19T05:34:07;100599.44;;;20.08;100.00
30636;BME280;17400;52.392;9.750;2022-08-19T05:36:45;100601.09;;;20.09;100.00
30636;BME280;17400;52.392;9.750;2022-08-19T05:39:17;100607.66;;;20.03;100.00
30636;BME280;17400;52.392;9.750;2022-08-19T05:41:47;100604.81;;;19.93;100.00
30636;BME280;17400;52.392;9.750;2022-08-19T05:44:16;100599.06;;;19.94;100.00
30636;BME280;17400;52.392;9.750;2022-08-19T05:46:44;100608.69;;;19.97;100.00
30636;BME280;17400;52.392;9.750;2022-08-19T05:49:13;100601.59;;;20.01;100.00
30636;BME280;17400;52.392;9.750;2022-08-19T05:51:42;100600.81;;;20.06;100.00
30636;BME280;17400;52.392;9.750;2022-08-19T05:54:11;100607.38;;;20.05;100.00
30636;BME280;17400;52.392;9.750;2022-08-19T05:56:42;100599.38;;;19.98;100.00
30636;BME280;17400;52.392;9.750;2022-08-19T05:59:10;100608.28;;;19.83;100.00
30636;BME280;17400;52.392;9.750;2022-08-19T06:01:40;100606.94;;;19.86;100.00
30636;BME280;17400;52.392;9.750;2022-08-19T06:04:08;100606.72;;;19.92;100.00
30636;BME280;17400;52.392;9.750;2022-08-19T06:06:36;100612.47;;;19.91;100.00
30636;BME280;17400;52.392;9.750;2022-08-19T06:09:06;100609.22;;;19.94;100.00
30636;BME280;17400;52.392;9.750;2022-08-19T06:11:36;100619.16;;;20.00;100.00
30636;BME280;17400;52.392;9.750;2022-08-19T06:14:08;100622.16;;;19.98;100.00
30636;BME280;17400;52.392;9.750;2022-08-19T06:16:42;100630.69;;;19.97;100.00
30636;BME280;17400;52.392;9.750;2022-08-19T06:19:13;100618.28;;;19.94;100.00
30636;BME280;17400;52.392;9.750;2022-08-19T06:21:44;100622.91;;;19.89;100.00
30636;BME280;17400;52.392;9.750;2022-08-19T06:24:14;100625.09;;;19.87;100.00
30636;BME280;17400;52.392;9.750;2022-08-19T06:26:45;100621.56;;;19.91;100.00
30636;BME280;17400;52.392;9.750;2022-08-19T06:29:21;100627.34;;;19.95;100.00
30636;BME280;17400;52.392;9.750;2022-08-19T06:31:52;100640.00;;;19.96;100.00
30636;BME280;17400;52.392;9.750;2022-08-19T06:34:20;100647.06;;;19.87;100.00
30636;BME280;17400;52.392;9.750;2022-08-19T06:36:50;100647.91;;;19.87;100.00
30636;BME280;17400;52.392;9.750;2022-08-19T06:39:20;100647.66;;;19.89;100.00
30636;BME280;17400;52.392;9.750;2022-08-19T06:41:50;100650.38;;;19.89;100.00
30636;BME280;17400;52.392;9.750;2022-08-19T06:44:28;100643.09;;;19.77;100.00
30636;BME280;17400;52.392;9.750;2022-08-19T06:46:57;100650.47;;;19.72;100.00
30636;BME280;17400;52.392;9.750;2022-08-19T06:49:25;100658.22;;;19.80;100.00
30636;BME280;17400;52.392;9.750;2022-08-19T06:51:59;100654.75;;;19.85;100.00
30636;BME280;17400;52.392;9.750;2022-08-19T06:54:28;100660.28;;;19.90;100.00
30636;BME280;17400;52.392;9.750;2022-08-19T06:56:56;100657.56;;;19.90;100.00
30636;BME280;17400;52.392;9.750;2022-08-19T06:59:25;100666.56;;;19.85;100.00
30636;BME280;17400;52.392;9.750;2022-08-19T07:01:56;100659.09;;;19.80;100.00
30636;BME280;17400;52.392;9.750;2022-08-19T07:04:25;100663.53;;;19.87;100.00
30636;BME280;17400;52.392;9.750;2022-08-19T07:06:57;100671.47;;;19.83;100.00
30636;BME280;17400;52.392;9.750;2022-08-19T07:09:45;100680.66;;;19.94;100.00
30636;BME280;17400;52.392;9.750;2022-08-19T07:12:27;100683.47;;;19.99;100.00
30636;BME280;17400;52.392;9.750;2022-08-19T07:14:58;100680.19;;;20.02;100.00
30636;BME280;17400;52.392;9.750;2022-08-19T07:17:27;100674.63;;;19.97;100.00
30636;BME280;17400;52.392;9.750;2022-08-19T07:19:56;100685.88;;;19.95;100.00
30636;BME280;17400;52.392;9.750;2022-08-19T07:22:32;100679.59;;;20.00;100.00
30636;BME280;17400;52.392;9.750;2022-08-19T07:25:00;100699.47;;;20.07;100.00
30636;BME280;17400;52.392;9.750;2022-08-19T07:27:30;100701.94;;;20.09;100.00
30636;BME280;17400;52.392;9.750;2022-08-19T07:30:00;100699.19;;;20.09;100.00
30636;BME280;17400;52.392;9.750;2022-08-19T07:32:28;100698.66;;;20.12;100.00
30636;BME280;17400;52.392;9.750;2022-08-19T07:34:58;100706.41;;;20.15;100.00
30636;BME280;17400;52.392;9.750;2022-08-19T07:37:27;100711.94;;;20.20;100.00
30636;BME280;17400;52.392;9.750;2022-08-19T07:39:59;100712.75;;;20.21;100.00
30636;BME280;17400;52.392;9.750;2022-08-19T07:42:27;100712.22;;;20.24;100.00
30636;BME280;17400;52.392;9.750;2022-08-19T07:44:56;100722.13;;;20.25;100.00
30636;BME280;17400;52.392;9.750;2022-08-19T07:47:25;100732.81;;;20.21;100.00
30636;BME280;17400;52.392;9.750;2022-08-19T07:50:14;100737.22;;;20.22;100.00
30636;BME280;17400;52.392;9.750;2022-08-19T07:52:42;100735.56;;;20.21;100.00
30636;BME280;17400;52.392;9.750;2022-08-19T07:55:16;100741.91;;;20.22;100.00
30636;BME280;17400;52.392;9.750;2022-08-19T07:58:04;100738.91;;;20.23;100.00
30636;BME280;17400;52.392;9.750;2022-08-19T08:00:32;100749.31;;;20.21;100.00
30636;BME280;17400;52.392;9.750;2022-08-19T08:03:01;100737.44;;;20.16;100.00
30636;BME280;17400;52.392;9.750;2022-08-19T08:05:28;100732.88;;;20.26;100.00
30636;BME280;17400;52.392;9.750;2022-08-19T08:08:14;100740.91;;;20.33;100.00
30636;BME280;17400;52.392;9.750;2022-08-19T08:10:59;100741.31;;;20.47;100.00
30636;BME280;17400;52.392;9.750;2022-08-19T08:13:27;100744.38;;;20.56;100.00
30636;BME280;17400;52.392;9.750;2022-08-19T08:15:55;100758.13;;;20.56;100.00
30636;BME280;17400;52.392;9.750;2022-08-19T08:18:24;100747.13;;;20.56;100.00
30636;BME280;17400;52.392;9.750;2022-08-19T08:20:53;100746.09;;;20.62;100.00
30636;BME280;17400;52.392;9.750;2022-08-19T08:23:21;100745.09;;;20.73;100.00
30636;BME280;17400;52.392;9.750;2022-08-19T08:25:55;100741.53;;;20.78;100.00
30636;BME280;17400;52.392;9.750;2022-08-19T08:28:24;100749.88;;;20.56;100.00
30636;BME280;17400;52.392;9.750;2022-08-19T08:30:56;100738.91;;;20.61;100.00
30636;BME280;17400;52.392;9.750;2022-08-19T08:33:27;100749.13;;;20.66;100.00
30636;BME280;17400;52.392;9.750;2022-08-19T08:36:00;100750.09;;;20.82;100.00
30636;BME280;17400;52.392;9.750;2022-08-19T08:38:30;100734.41;;;20.82;100.00
30636;BME280;17400;52.392;9.750;2022-08-19T08:41:09;100747.03;;;20.78;100.00
30636;BME280;17400;52.392;9.750;2022-08-19T08:43:48;100746.47;;;20.71;100.00
30636;BME280;17400;52.392;9.750;2022-08-19T08:46:21;100746.75;;;20.74;100.00
30636;BME280;17400;52.392;9.750;2022-08-19T08:49:02;100736.06;;;20.83;100.00
30636;BME280;17400;52.392;9.750;2022-08-19T08:51:37;100750.44;;;20.95;100.00
30636;BME280;17400;52.392;9.750;2022-08-19T08:54:13;100744.72;;;21.02;100.00
30636;BME280;17400;52.392;9.750;2022-08-19T08:56:43;100737.06;;;21.09;100.00
30636;BME280;17400;52.392;9.750;2022-08-19T08:59:18;100732.66;;;21.08;100.00
30636;BME280;17400;52.392;9.750;2022-08-19T09:01:46;100743.69;;;21.13;100.00
30636;BME280;17400;52.392;9.750;2022-08-19T09:04:16;100745.06;;;21.16;99.79
30636;BME280;17400;52.392;9.750;2022-08-19T09:06:51;100737.44;;;21.34;99.85
30636;BME280;17400;52.392;9.750;2022-08-19T09:09:27;100746.56;;;21.39;96.96
30636;BME280;17400;52.392;9.750;2022-08-19T09:12:05;100742.44;;;21.42;97.32
30636;BME280;17400;52.392;9.750;2022-08-19T09:14:44;100735.25;;;21.36;96.05
30636;BME280;17400;52.392;9.750;2022-08-19T09:17:19;100744.94;;;21.43;96.58
30636;BME280;17400;52.392;9.750;2022-08-19T09:20:00;100738.09;;;21.51;96.32
30636;BME280;17400;52.392;9.750;2022-08-19T09:22:35;100736.41;;;21.50;93.91
30636;BME280;17400;52.392;9.750;2022-08-19T09:25:05;100734.22;;;21.52;94.77
30636;BME280;17400;52.392;9.750;2022-08-19T09:27:36;100734.53;;;21.56;95.51
30636;BME280;17400;52.392;9.750;2022-08-19T09:30:21;100730.13;;;21.60;96.42
30636;BME280;17400;52.392;9.750;2022-08-19T09:32:50;100729.06;;;21.71;96.87
30636;BME280;17400;52.392;9.750;2022-08-19T09:35:22;100717.47;;;21.64;91.75
30636;BME280;17400;52.392;9.750;2022-08-19T09:37:51;100730.41;;;21.58;92.71
30636;BME280;17400;52.392;9.750;2022-08-19T09:40:26;100724.09;;;21.68;92.06
30636;BME280;17400;52.392;9.750;2022-08-19T09:42:56;100715.59;;;21.85;92.90
30636;BME280;17400;52.392;9.750;2022-08-19T09:45:39;100711.47;;;21.93;92.29
30636;BME280;17400;52.392;9.750;2022-08-19T09:48:07;100715.91;;;22.04;90.87
30636;BME280;17400;52.392;9.750;2022-08-19T09:50:38;100726.09;;;22.09;90.33
30636;BME280;17400;52.392;9.750;2022-08-19T09:53:18;100727.75;;;22.05;87.50
30636;BME280;17400;52.392;9.750;2022-08-19T09:55:51;100725.84;;;22.00;88.08
30636;BME280;17400;52.392;9.750;2022-08-19T09:58:19;100722.22;;;21.94;88.05
30636;BME280;17400;52.392;9.750;2022-08-19T10:00:52;100723.06;;;22.05;88.12
30636;BME280;17400;52.392;9.750;2022-08-19T10:03:20;100724.44;;;22.13;86.90
30636;BME280;17400;52.392;9.750;2022-08-19T10:05:58;100726.91;;;22.14;85.86
30636;BME280;17400;52.392;9.750;2022-08-19T10:08:28;100723.34;;;22.19;86.42
30636;BME280;17400;52.392;9.750;2022-08-19T10:10:56;100716.75;;;22.30;84.76
30636;BME280;17400;52.392;9.750;2022-08-19T10:13:30;100720.88;;;22.33;84.32
30636;BME280;17400;52.392;9.750;2022-08-19T10:16:03;100722.25;;;22.25;84.65
30636;BME280;17400;52.392;9.750;2022-08-19T10:18:31;100723.38;;;22.29;85.11
30636;BME280;17400;52.392;9.750;2022-08-19T10:21:07;100717.00;;;22.34;83.70
30636;BME280;17400;52.392;9.750;2022-08-19T10:23:38;100712.63;;;22.23;85.01
30636;BME280;17400;52.392;9.750;2022-08-19T10:26:07;100718.41;;;22.16;82.84
30636;BME280;17400;52.392;9.750;2022-08-19T10:28:35;100706.00;;;22.13;82.59
30636;BME280;17400;52.392;9.750;2022-08-19T10:31:06;100714.28;;;22.19;81.87
30636;BME280;17400;52.392;9.750;2022-08-19T10:33:34;100710.94;;;22.22;81.32
30636;BME280;17400;52.392;9.750;2022-08-19T10:36:22;100699.38;;;22.30;80.84
30636;BME280;17400;52.392;9.750;2022-08-19T10:38:52;100689.44;;;22.34;80.92
30636;BME280;17400;52.392;9.750;2022-08-19T10:41:25;100681.47;;;22.43;80.18
30636;BME280;17400;52.392;9.750;2022-08-19T10:43:54;100691.94;;;22.46;79.19
30636;BME280;17400;52.392;9.750;2022-08-19T10:46:29;100677.31;;;22.45;77.19
30636;BME280;17400;52.392;9.750;2022-08-19T10:48:59;100687.78;;;22.43;77.05
30636;BME280;17400;52.392;9.750;2022-08-19T10:51:31;100676.75;;;22.43;77.53
30636;BME280;17400;52.392;9.750;2022-08-19T10:54:17;100665.72;;;22.43;75.95
30636;BME280;17400;52.392;9.750;2022-08-19T10:56:56;100662.44;;;22.41;76.89
30636;BME280;17400;52.392;9.750;2022-08-19T10:59:25;100669.59;;;22.42;78.34
30636;BME280;17400;52.392;9.750;2022-08-19T11:02:01;100659.13;;;22.44;77.43
30636;BME280;17400;52.392;9.750;2022-08-19T11:04:29;100661.31;;;22.42;77.05
30636;BME280;17400;52.392;9.750;2022-08-19T11:06:59;100651.94;;;22.43;76.51
30636;BME280;17400;52.392;9.750;2022-08-19T11:09:27;100666.28;;;22.45;75.80
30636;BME280;17400;52.392;9.750;2022-08-19T11:12:00;100659.09;;;22.55;76.69
30636;BME280;17400;52.392;9.750;2022-08-19T11:14:31;100657.72;;;22.62;76.18
30636;BME280;17400;52.392;9.750;2022-08-19T11:17:00;100663.75;;;22.70;75.94
30636;BME280;17400;52.392;9.750;2022-08-19T11:19:28;100656.03;;;22.72;74.44
30636;BME280;17400;52.392;9.750;2022-08-19T11:21:56;100656.25;;;22.80;73.81
30636;BME280;17400;52.392;9.750;2022-08-19T11:24:27;100652.09;;;22.88;72.28
30636;BME280;17400;52.392;9.750;2022-08-19T11:27:01;100644.59;;;22.99;71.26
30636;BME280;17400;52.392;9.750;2022-08-19T11:29:31;100635.78;;;23.02;71.71
30636;BME280;17400;52.392;9.750;2022-08-19T11:32:04;100640.69;;;23.10;72.58
30636;BME280;17400;52.392;9.750;2022-08-19T11:34:33;100630.19;;;23.12;70.98
30636;BME280;17400;52.392;9.750;2022-08-19T11:37:01;100631.84;;;23.19;71.52
30636;BME280;17400;52.392;9.750;2022-08-19T11:39:32;100622.94;;;23.32;70.32
30636;BME280;17400;52.392;9.750;2022-08-19T11:42:02;100623.47;;;23.39;70.98
30636;BME280;17400;52.392;9.750;2022-08-19T11:44:50;100630.81;;;23.54;70.32
30636;BME280;17400;52.392;9.750;2022-08-19T11:47:19;100633.22;;;23.66;69.38
30636;BME280;17400;52.392;9.750;2022-08-19T11:49:47;100636.47;;;23.73;68.02
30636;BME280;17400;52.392;9.750;2022-08-19T11:52:14;100640.06;;;23.79;69.32
30636;BME280;17400;52.392;9.750;2022-08-19T11:54:43;100634.72;;;23.93;66.22
30636;BME280;17400;52.392;9.750;2022-08-19T11:57:11;100647.13;;;23.95;66.58
30636;BME280;17400;52.392;9.750;2022-08-19T11:59:41;100644.31;;;24.01;66.33
30636;BME280;17400;52.392;9.750;2022-08-19T12:02:08;100642.34;;;24.06;65.84
30636;BME280;17400;52.392;9.750;2022-08-19T12:04:37;100635.91;;;24.16;67.18
30636;BME280;17400;52.392;9.750;2022-08-19T12:07:04;100635.31;;;24.19;66.88
30636;BME280;17400;52.392;9.750;2022-08-19T12:09:33;100637.25;;;24.19;66.24
30636;BME280;17400;52.392;9.750;2022-08-19T12:12:02;100624.63;;;24.37;64.96
30636;BME280;17400;52.392;9.750;2022-08-19T12:14:31;100621.41;;;24.54;63.89
30636;BME280;17400;52.392;9.750;2022-08-19T12:16:58;100616.97;;;24.82;63.13
30636;BME280;17400;52.392;9.750;2022-08-19T12:19:26;100609.59;;;24.97;60.03
30636;BME280;17400;52.392;9.750;2022-08-19T12:21:58;100613.13;;;25.02;59.40
30636;BME280;17400;52.392;9.750;2022-08-19T12:24:30;100605.56;;;25.08;61.16
30636;BME280;17400;52.392;9.750;2022-08-19T12:26:58;100603.41;;;25.24;59.29
30636;BME280;17400;52.392;9.750;2022-08-19T12:29:30;100615.69;;;25.18;59.26
30636;BME280;17400;52.392;9.750;2022-08-19T12:31:58;100622.22;;;25.27;59.30
30636;BME280;17400;52.392;9.750;2022-08-19T12:34:28;100619.84;;;25.39;58.33
30636;BME280;17400;52.392;9.750;2022-08-19T12:36:57;100615.19;;;25.54;57.93
30636;BME280;17400;52.392;9.750;2022-08-19T12:39:25;100608.59;;;25.69;56.81
30636;BME280;17400;52.392;9.750;2022-08-19T12:41:53;100606.53;;;25.74;57.73
30636;BME280;17400;52.392;9.750;2022-08-19T12:44:21;100600.84;;;25.85;57.27
30636;BME280;17400;52.392;9.750;2022-08-19T12:46:56;100605.34;;;25.81;59.21
30636;BME280;17400;52.392;9.750;2022-08-19T12:49:24;100616.97;;;25.83;58.20
30636;BME280;17400;52.392;9.750;2022-08-19T12:52:12;100616.34;;;25.86;58.15
30636;BME280;17400;52.392;9.750;2022-08-19T12:54:47;100623.00;;;25.85;56.98
30636;BME280;17400;52.392;9.750;2022-08-19T12:57:20;100616.31;;;26.05;55.84
30636;BME280;17400;52.392;9.750;2022-08-19T12:59:58;100614.41;;;26.19;54.16
30636;BME280;17400;52.392;9.750;2022-08-19T13:02:27;100620.72;;;26.25;53.08
30636;BME280;17400;52.392;9.750;2022-08-19T13:04:55;100611.34;;;26.35;52.60
30636;BME280;17400;52.392;9.750;2022-08-19T13:07:23;100602.44;;;26.52;52.72
30636;BME280;17400;52.392;9.750;2022-08-19T13:09:51;100595.44;;;26.68;50.55
30636;BME280;17400;52.392;9.750;2022-08-19T13:12:18;100605.88;;;26.76;50.95
30636;BME280;17400;52.392;9.750;2022-08-19T13:14:50;100600.66;;;26.70;49.62
30636;BME280;17400;52.392;9.750;2022-08-19T13:17:18;100607.38;;;26.83;50.17
30636;BME280;17400;52.392;9.750;2022-08-19T13:19:47;100609.63;;;26.94;49.29
30636;BME280;17400;52.392;9.750;2022-08-19T13:22:15;100606.44;;;27.01;50.05
30636;BME280;17400;52.392;9.750;2022-08-19T13:24:43;100593.47;;;27.10;48.19
30636;BME280;17400;52.392;9.750;2022-08-19T13:27:13;100596.66;;;27.18;47.54
30636;BME280;17400;52.392;9.750;2022-08-19T13:29:41;100590.47;;;27.21;47.71
30636;BME280;17400;52.392;9.750;2022-08-19T13:32:28;100593.22;;;27.35;47.53
30636;BME280;17400;52.392;9.750;2022-08-19T13:35:16;100593.38;;;27.52;47.56
30636;BME280;17400;52.392;9.750;2022-08-19T13:37:44;100588.06;;;27.65;45.36
30636;BME280;17400;52.392;9.750;2022-08-19T13:40:14;100591.72;;;27.74;47.00
30636;BME280;17400;52.392;9.750;2022-08-19T13:42:46;100590.84;;;27.87;45.60
30636;BME280;17400;52.392;9.750;2022-08-19T13:45:15;100594.81;;;27.95;45.51
30636;BME280;17400;52.392;9.750;2022-08-19T13:47:45;100597.59;;;27.95;44.78
30636;BME280;17400;52.392;9.750;2022-08-19T13:50:17;100588.50;;;28.03;44.23
30636;BME280;17400;52.392;9.750;2022-08-19T13:52:46;100596.41;;;28.10;45.63
30636;BME280;17400;52.392;9.750;2022-08-19T13:55:15;100598.75;;;28.17;44.90
30636;BME280;17400;52.392;9.750;2022-08-19T13:57:51;100594.13;;;28.12;43.92
30636;BME280;17400;52.392;9.750;2022-08-19T14:00:21;100589.88;;;28.15;43.74
30636;BME280;17400;52.392;9.750;2022-08-19T14:02:51;100587.84;;;28.29;44.32
30636;BME280;17400;52.392;9.750;2022-08-19T14:05:21;100590.81;;;28.41;43.88
30636;BME280;17400;52.392;9.750;2022-08-19T14:07:48;100593.94;;;28.40;43.92
30636;BME280;17400;52.392;9.750;2022-08-19T14:10:17;100586.75;;;28.48;43.48
30636;BME280;17400;52.392;9.750;2022-08-19T14:12:45;100589.13;;;28.63;42.94
30636;BME280;17400;52.392;9.750;2022-08-19T14:15:14;100583.25;;;28.73;42.10
30636;BME280;17400;52.392;9.750;2022-08-19T14:17:43;100584.91;;;28.74;41.87
30636;BME280;17400;52.392;9.750;2022-08-19T14:20:13;100595.19;;;28.65;42.21
30636;BME280;17400;52.392;9.750;2022-08-19T14:22:47;100586.09;;;28.82;41.13
30636;BME280;17400;52.392;9.750;2022-08-19T14:25:17;100592.16;;;28.93;41.27
30636;BME280;17400;52.392;9.750;2022-08-19T14:27:45;100586.94;;;29.00;41.47
30636;BME280;17400;52.392;9.750;2022-08-19T14:30:16;100590.88;;;28.99;41.45
30636;BME280;17400;52.392;9.750;2022-08-19T14:32:44;100587.56;;;28.97;41.93
30636;BME280;17400;52.392;9.750;2022-08-19T14:35:13;100589.06;;;29.03;41.23
30636;BME280;17400;52.392;9.750;2022-08-19T14:37:43;100587.44;;;29.02;40.88
30636;BME280;17400;52.392;9.750;2022-08-19T14:40:14;100588.25;;;28.94;40.72
30636;BME280;17400;52.392;9.750;2022-08-19T14:42:43;100580.88;;;28.98;41.38
30636;BME280;17400;52.392;9.750;2022-08-19T14:45:12;100580.06;;;29.06;40.01
30636;BME280;17400;52.392;9.750;2022-08-19T14:47:39;100569.44;;;29.17;39.96
30636;BME280;17400;52.392;9.750;2022-08-19T14:50:10;100572.22;;;29.26;40.25
30636;BME280;17400;52.392;9.750;2022-08-19T14:52:44;100579.06;;;29.20;39.93
30636;BME280;17400;52.392;9.750;2022-08-19T14:55:13;100578.78;;;29.21;39.81
30636;BME280;17400;52.392;9.750;2022-08-19T14:57:42;100589.13;;;29.30;40.02
30636;BME280;17400;52.392;9.750;2022-08-19T15:00:12;100594.19;;;29.19;46.06
30636;BME280;17400;52.392;9.750;2022-08-19T15:02:40;100594.66;;;29.03;40.99
30636;BME280;17400;52.392;9.750;2022-08-19T15:05:10;100596.53;;;28.68;40.62
30636;BME280;17400;52.392;9.750;2022-08-19T15:07:39;100600.03;;;28.42;40.72
30636;BME280;17400;52.392;9.750;2022-08-19T15:10:09;100602.06;;;28.28;41.64
30636;BME280;17400;52.392;9.750;2022-08-19T15:12:39;100606.91;;;28.13;41.89
30636;BME280;17400;52.392;9.750;2022-08-19T15:15:08;100599.97;;;28.02;42.30
30636;BME280;17400;52.392;9.750;2022-08-19T15:17:39;100603.16;;;27.95;42.71
30636;BME280;17400;52.392;9.750;2022-08-19T15:20:20;100607.19;;;27.89;43.19
30636;BME280;17400;52.392;9.750;2022-08-19T15:22:49;100605.50;;;27.79;42.57
30636;BME280;17400;52.392;9.750;2022-08-19T15:25:18;100602.16;;;27.68;43.32
30636;BME280;17400;52.392;9.750;2022-08-19T15:27:47;100605.09;;;27.49;43.55
30636;BME280;17400;52.392;9.750;2022-08-19T15:30:20;100599.19;;;27.42;44.25
30636;BME280;17400;52.392;9.750;2022-08-19T15:32:48;100605.94;;;27.36;43.79
30636;BME280;17400;52.392;9.750;2022-08-19T15:35:16;100607.00;;;27.26;44.23
30636;BME280;17400;52.392;9.750;2022-08-19T15:37:45;100614.53;;;27.25;43.88
30636;BME280;17400;52.392;9.750;2022-08-19T15:40:12;100608.88;;;27.17;43.68
30636;BME280;17400;52.392;9.750;2022-08-19T15:42:40;100611.69;;;27.03;44.64
30636;BME280;17400;52.392;9.750;2022-08-19T15:45:11;100612.53;;;26.89;44.31
30636;BME280;17400;52.392;9.750;2022-08-19T15:47:39;100601.84;;;26.83;45.08
30636;BME280;17400;52.392;9.750;2022-08-19T15:50:10;100609.16;;;26.79;45.21
30636;BME280;17400;52.392;9.750;2022-08-19T15:52:44;100607.31;;;26.74;45.93
30636;BME280;17400;52.392;9.750;2022-08-19T15:55:16;100612.03;;;26.73;45.90
30636;BME280;17400;52.392;9.750;2022-08-19T15:58:01;100605.03;;;26.76;51.33
30636;BME280;17400;52.392;9.750;2022-08-19T16:01:05;100609.25;;;26.73;50.48
30636;BME280;17400;52.392;9.750;2022-08-19T16:03:54;100606.47;;;26.73;49.98
30636;BME280;17400;52.392;9.750;2022-08-19T16:06:43;100599.84;;;26.69;47.91
30636;BME280;17400;52.392;9.750;2022-08-19T16:09:11;100605.31;;;26.60;46.93
30636;BME280;17400;52.392;9.750;2022-08-19T16:11:41;100610.66;;;26.57;46.74
30636;BME280;17400;52.392;9.750;2022-08-19T16:14:12;100609.63;;;26.53;47.38
30636;BME280;17400;52.392;9.750;2022-08-19T16:16:41;100600.78;;;26.51;47.40
30636;BME280;17400;52.392;9.750;2022-08-19T16:19:13;100603.56;;;26.51;47.04
30636;BME280;17400;52.392;9.750;2022-08-19T16:21:43;100610.22;;;26.50;46.36
30636;BME280;17400;52.392;9.750;2022-08-19T16:24:13;100604.50;;;26.46;46.65
30636;BME280;17400;52.392;9.750;2022-08-19T16:26:41;100597.59;;;26.43;45.22
30636;BME280;17400;52.392;9.750;2022-08-19T16:29:10;100588.75;;;26.41;45.64
30636;BME280;17400;52.392;9.750;2022-08-19T16:31:43;100580.53;;;26.36;45.48
30636;BME280;17400;52.392;9.750;2022-08-19T16:34:12;100588.63;;;26.33;45.48
30636;BME280;17400;52.392;9.750;2022-08-19T16:36:40;100590.06;;;26.30;44.49
30636;BME280;17400;52.392;9.750;2022-08-19T16:39:09;100591.53;;;26.27;45.50
30636;BME280;17400;52.392;9.750;2022-08-19T16:41:38;100585.13;;;26.27;45.10
30636;BME280;17400;52.392;9.750;2022-08-19T16:44:08;100578.47;;;26.28;45.18
30636;BME280;17400;52.392;9.750;2022-08-19T16:46:37;100584.81;;;26.28;44.69
30636;BME280;17400;52.392;9.750;2022-08-19T16:49:10;100584.50;;;26.30;45.39
30636;BME280;17400;52.392;9.750;2022-08-19T16:51:38;100590.38;;;26.28;45.53
30636;BME280;17400;52.392;9.750;2022-08-19T16:54:06;100582.38;;;26.27;44.58
30636;BME280;17400;52.392;9.750;2022-08-19T16:56:34;100587.09;;;26.26;44.71
30636;BME280;17400;52.392;9.750;2022-08-19T16:59:02;100590.38;;;26.28;45.29
30636;BME280;17400;52.392;9.750;2022-08-19T17:01:30;100582.06;;;26.28;45.28
30636;BME280;17400;52.392;9.750;2022-08-19T17:03:58;100587.59;;;26.28;44.44
30636;BME280;17400;52.392;9.750;2022-08-19T17:06:28;100595.13;;;26.28;45.21